createdAt,value
2019-03-09T00:00:48.633Z,100666.14
2019-03-09T00:03:18.940Z,100651.34
2019-03-09T00:05:49.245Z,100651.31
2019-03-09T00:08:19.529Z,100647.84
2019-03-09T00:10:49.933Z,100636.11
2019-03-09T00:13:20.006Z,100643.93
2019-03-09T00:15:50.188Z,100625.69
2019-03-09T00:18:20.535Z,100631.30
2019-03-09T00:20:50.917Z,100622.19
2019-03-09T00:23:33.729Z,100616.98
2019-03-09T00:26:24.455Z,100613.94
2019-03-09T00:29:03.305Z,100594.38
2019-03-09T00:31:40.779Z,100593.94
2019-03-09T00:34:10.841Z,100580.48
2019-03-09T00:36:41.145Z,100582.63
2019-03-09T00:39:11.803Z,100576.98
2019-03-09T00:41:42.197Z,100574.38
2019-03-09T00:44:12.532Z,100563.11
2019-03-09T00:46:42.717Z,100556.13
2019-03-09T00:49:12.790Z,100547.45
2019-03-09T00:51:43.046Z,100546.16
2019-03-09T00:54:15.122Z,100540.50
2019-03-09T00:56:45.700Z,100519.66
2019-03-09T00:59:15.979Z,100528.35
2019-03-09T01:01:46.180Z,100515.73
2019-03-09T01:04:16.344Z,100502.25
2019-03-09T01:06:46.468Z,100471.86
2019-03-09T01:09:16.820Z,100474.87
2019-03-09T01:11:47.797Z,100474.90
2019-03-09T01:14:17.890Z,100470.99
2019-03-09T01:16:48.367Z,100457.97
2019-03-09T01:19:18.533Z,100443.20
2019-03-09T01:21:48.753Z,100431.08
2019-03-09T01:24:19.035Z,100440.19
2019-03-09T01:26:49.331Z,100436.28
2019-03-09T01:29:19.785Z,100440.59
2019-03-09T01:31:50.053Z,100431.50
2019-03-09T01:34:20.280Z,100424.58
2019-03-09T01:36:50.569Z,100418.50
2019-03-09T01:39:20.723Z,100405.50
2019-03-09T01:41:51.303Z,100405.06
2019-03-09T01:44:21.453Z,100390.31
2019-03-09T01:46:51.648Z,100378.62
2019-03-09T01:49:21.739Z,100386.45
2019-03-09T01:51:52.190Z,100378.23
2019-03-09T01:54:22.504Z,100380.44
2019-03-09T01:56:52.927Z,100368.25
2019-03-09T01:59:23.185Z,100372.64
2019-03-09T02:01:53.403Z,100363.97
2019-03-09T02:04:23.447Z,100351.38
2019-03-09T02:06:53.876Z,100344.48
2019-03-09T02:09:24.490Z,100340.58
2019-03-09T02:11:54.929Z,100342.77
2019-03-09T02:14:25.402Z,100335.39
2019-03-09T02:16:55.693Z,100339.34
2019-03-09T02:19:26.210Z,100345.44
2019-03-09T02:21:56.571Z,100324.16
2019-03-09T02:24:26.902Z,100334.61
2019-03-09T02:26:57.183Z,100304.21
2019-03-09T02:29:27.406Z,100326.37
2019-03-09T02:31:57.613Z,100314.64
2019-03-09T02:34:27.828Z,100315.53
2019-03-09T02:36:58.092Z,100304.69
2019-03-09T02:39:36.346Z,100317.30
2019-03-09T02:42:06.781Z,100316.89
2019-03-09T02:44:37.205Z,100311.25
2019-03-09T02:47:07.420Z,100307.80
2019-03-09T02:49:37.743Z,100304.77
2019-03-09T02:52:08.367Z,100298.69
2019-03-09T02:54:38.691Z,100295.22
2019-03-09T02:57:08.971Z,100286.55
2019-03-09T02:59:39.407Z,100303.95
2019-03-09T03:02:25.788Z,100290.92
2019-03-09T03:04:56.197Z,100284.87
2019-03-09T03:07:26.361Z,100291.40
2019-03-09T03:09:56.843Z,100288.36
2019-03-09T03:12:26.971Z,100296.65
2019-03-09T03:14:57.233Z,100319.28
2019-03-09T03:17:27.784Z,100318.42
2019-03-09T03:19:57.946Z,100319.73
2019-03-09T03:22:28.350Z,100330.16
2019-03-09T03:24:58.681Z,100333.69
2019-03-09T03:27:29.155Z,100368.95
2019-03-09T03:29:59.345Z,100331.56
2019-03-09T03:32:33.636Z,100345.91
2019-03-09T03:35:04.321Z,100348.54
2019-03-09T03:37:34.578Z,100333.74
2019-03-09T03:40:05.862Z,100330.25
2019-03-09T03:42:36.249Z,100345.49
2019-03-09T03:45:07.390Z,100351.98
2019-03-09T03:47:37.677Z,100364.17
2019-03-09T03:50:07.960Z,100372.45
2019-03-09T03:52:38.335Z,100365.54
2019-03-09T03:55:08.828Z,100364.67
2019-03-09T03:57:38.909Z,100380.77
2019-03-09T04:00:10.998Z,100379.91
2019-03-09T04:02:41.487Z,100386.47
2019-03-09T04:05:11.685Z,100382.13
2019-03-09T04:07:42.151Z,100390.80
2019-03-09T04:10:12.877Z,100400.41
2019-03-09T04:12:43.748Z,100391.22
2019-03-09T04:15:14.619Z,100387.30
2019-03-09T04:17:45.160Z,100393.81
2019-03-09T04:20:15.630Z,100390.33
2019-03-09T04:22:45.849Z,100403.34
2019-03-09T04:25:16.219Z,100402.44
2019-03-09T04:27:46.476Z,100400.63
2019-03-09T04:30:16.772Z,100416.28
2019-03-09T04:32:52.536Z,100394.96
2019-03-09T04:35:30.076Z,100407.13
2019-03-09T04:38:00.357Z,100399.27
2019-03-09T04:40:30.524Z,100408.36
2019-03-09T04:43:00.780Z,100408.85
2019-03-09T04:45:31.003Z,100411.91
2019-03-09T04:48:01.233Z,100430.19
2019-03-09T04:50:31.632Z,100437.14
2019-03-09T04:53:02.179Z,100438.88
2019-03-09T04:55:32.539Z,100434.91
2019-03-09T04:58:03.002Z,100446.59
2019-03-09T05:00:35.075Z,100446.98
2019-03-09T05:03:05.366Z,100449.52
2019-03-09T05:05:35.652Z,100452.52
2019-03-09T05:08:12.790Z,100455.13
2019-03-09T05:11:00.295Z,100450.75
2019-03-09T05:14:02.609Z,100451.99
2019-03-09T05:16:32.832Z,100477.55
2019-03-09T05:19:03.137Z,100465.80
2019-03-09T05:21:33.342Z,100461.84
2019-03-09T05:24:03.593Z,100455.31
2019-03-09T05:26:36.643Z,100459.62
2019-03-09T05:29:06.938Z,100469.59
2019-03-09T05:31:40.120Z,100485.19
2019-03-09T05:34:10.346Z,100486.88
2019-03-09T05:36:41.708Z,100479.03
2019-03-09T05:39:12.021Z,100477.30
2019-03-09T05:41:42.402Z,100480.34
2019-03-09T05:44:12.539Z,100492.02
2019-03-09T05:46:42.725Z,100481.13
2019-03-09T05:49:12.988Z,100489.77
2019-03-09T05:51:43.211Z,100488.89
2019-03-09T05:54:13.308Z,100484.94
2019-03-09T05:56:43.960Z,100482.76
2019-03-09T05:59:14.494Z,100494.72
2019-03-09T06:01:45.184Z,100493.41
2019-03-09T06:04:15.950Z,100502.10
2019-03-09T06:06:46.578Z,100511.20
2019-03-09T06:09:17.089Z,100505.14
2019-03-09T06:11:47.601Z,100511.22
2019-03-09T06:14:18.031Z,100510.84
2019-03-09T06:16:48.391Z,100511.72
2019-03-09T06:19:18.881Z,100515.24
2019-03-09T06:21:49.427Z,100517.89
2019-03-09T06:24:20.034Z,100521.85
2019-03-09T06:26:50.679Z,100545.29
2019-03-09T06:29:22.256Z,100526.66
2019-03-09T06:32:46.914Z,100534.52
2019-03-09T06:35:17.459Z,100521.54
2019-03-09T06:37:55.851Z,100520.73
2019-03-09T06:40:26.333Z,100516.86
2019-03-09T06:42:56.745Z,100526.05
2019-03-09T06:45:27.153Z,100519.51
2019-03-09T06:47:57.603Z,100533.03
2019-03-09T06:50:28.014Z,100537.77
2019-03-09T06:52:58.618Z,100542.52
2019-03-09T06:55:31.626Z,100528.63
2019-03-09T06:58:02.067Z,100543.88
2019-03-09T07:00:36.173Z,100545.58
2019-03-09T07:03:07.854Z,100547.78
2019-03-09T07:05:38.045Z,100578.69
2019-03-09T07:08:08.247Z,100580.03
2019-03-09T07:10:40.667Z,100570.05
2019-03-09T07:13:11.037Z,100562.28
2019-03-09T07:15:44.014Z,100557.97
2019-03-09T07:18:32.921Z,100558.47
2019-03-09T07:21:03.111Z,100574.16
2019-03-09T07:23:33.378Z,100570.25
2019-03-09T07:26:03.611Z,100559.84
2019-03-09T07:28:33.753Z,100563.74
2019-03-09T07:31:04.044Z,100578.95
2019-03-09T07:33:34.275Z,100570.69
2019-03-09T07:36:04.633Z,100583.73
2019-03-09T07:38:34.929Z,100591.16
2019-03-09T07:41:05.185Z,100598.97
2019-03-09T07:43:35.272Z,100620.31
2019-03-09T07:46:05.531Z,100607.73
2019-03-09T07:48:35.778Z,100616.98
2019-03-09T07:51:06.758Z,100612.22
2019-03-09T07:53:37.072Z,100622.27
2019-03-09T07:56:07.293Z,100632.74
2019-03-09T07:58:37.548Z,100645.39
2019-03-09T08:01:08.958Z,100628.91
2019-03-09T08:03:41.937Z,100644.17
2019-03-09T08:06:12.328Z,100643.30
2019-03-09T08:08:42.420Z,100647.63
2019-03-09T08:11:12.700Z,100640.21
2019-03-09T08:13:43.120Z,100650.24
2019-03-09T08:16:13.455Z,100658.13
2019-03-09T08:18:45.270Z,100655.52
2019-03-09T08:21:15.591Z,100653.81
2019-03-09T08:23:45.812Z,100664.73
2019-03-09T08:26:16.363Z,100662.16
2019-03-09T08:28:46.523Z,100654.34
2019-03-09T08:31:16.702Z,100651.30
2019-03-09T08:33:46.962Z,100660.47
2019-03-09T08:36:17.310Z,100657.45
2019-03-09T08:38:47.432Z,100674.45
2019-03-09T08:41:17.607Z,100666.63
2019-03-09T08:43:47.855Z,100662.77
2019-03-09T08:46:18.126Z,100658.86
2019-03-09T08:48:48.365Z,100661.53
2019-03-09T08:51:18.659Z,100646.74
2019-03-09T08:53:48.759Z,100679.00
2019-03-09T08:56:19.006Z,100679.91
2019-03-09T08:58:49.170Z,100672.53
2019-03-09T09:01:19.372Z,100690.45
2019-03-09T09:03:49.614Z,100687.02
2019-03-09T09:06:29.236Z,100681.39
2019-03-09T09:08:59.589Z,100667.43
2019-03-09T09:11:30.378Z,100687.99
2019-03-09T09:16:29.411Z,100670.11
2019-03-09T09:19:01.456Z,100682.75
2019-03-09T09:21:33.888Z,100685.38
2019-03-09T09:24:04.241Z,100671.41
2019-03-09T09:26:34.737Z,100674.91
2019-03-09T09:29:05.092Z,100668.36
2019-03-09T09:31:35.360Z,100673.16
2019-03-09T09:34:05.757Z,100666.19
2019-03-09T09:36:36.636Z,100650.02
2019-03-09T09:39:09.271Z,100666.63
2019-03-09T09:41:39.526Z,100683.64
2019-03-09T09:44:09.842Z,100652.64
2019-03-09T09:46:40.038Z,100655.27
2019-03-09T09:49:10.191Z,100660.95
2019-03-09T09:51:40.445Z,100657.88
2019-03-09T09:54:10.816Z,100648.70
2019-03-09T09:56:41.004Z,100666.61
2019-03-09T09:59:11.239Z,100649.17
2019-03-09T10:01:41.498Z,100646.97
2019-03-09T10:04:11.694Z,100666.19
2019-03-09T10:06:41.919Z,100662.68
2019-03-09T10:09:16.609Z,100679.29
2019-03-09T10:11:46.995Z,100660.06
2019-03-09T10:14:17.236Z,100658.31
2019-03-09T10:16:50.060Z,100679.70
2019-03-09T10:19:20.347Z,100670.97
2019-03-09T10:21:50.589Z,100665.31
2019-03-09T10:24:20.704Z,100691.50
2019-03-09T10:26:50.885Z,100669.66
2019-03-09T10:29:21.128Z,100678.85
2019-03-09T10:31:51.306Z,100682.77
2019-03-09T10:34:21.450Z,100674.05
2019-03-09T10:36:51.802Z,100683.64
2019-03-09T10:39:22.486Z,100695.44
2019-03-09T10:41:52.636Z,100684.06
2019-03-09T10:44:22.844Z,100701.54
2019-03-09T10:46:53.172Z,100676.63
2019-03-09T10:49:23.385Z,100688.41
2019-03-09T10:51:53.561Z,100688.41
2019-03-09T10:54:23.807Z,100695.36
2019-03-09T10:56:54.038Z,100708.00
2019-03-09T10:59:24.296Z,100710.64
2019-03-09T11:01:54.545Z,100718.50
2019-03-09T11:04:27.839Z,100696.14
2019-03-09T11:06:56.683Z,100706.09
2019-03-09T11:09:26.909Z,100696.84
2019-03-09T11:11:57.133Z,100698.63
2019-03-09T11:14:27.263Z,100710.90
2019-03-09T11:16:57.639Z,100707.87
2019-03-09T11:19:28.309Z,100704.42
2019-03-09T11:21:58.486Z,100698.70
2019-03-09T11:24:28.736Z,100695.59
2019-03-09T11:26:58.853Z,100703.48
2019-03-09T11:29:29.065Z,100702.63
2019-03-09T11:31:59.324Z,100699.13
2019-03-09T11:34:29.628Z,100700.86
2019-03-09T11:36:59.887Z,100696.07
2019-03-09T11:39:30.187Z,100719.69
2019-03-09T11:42:00.436Z,100701.37
2019-03-09T11:44:30.617Z,100687.85
2019-03-09T11:47:01.035Z,100681.28
2019-03-09T11:49:31.232Z,100668.17
2019-03-09T11:52:01.462Z,100649.36
2019-03-09T11:54:31.772Z,100679.07
2019-03-09T11:57:02.083Z,100669.87
2019-03-09T11:59:32.615Z,100663.19
2019-03-09T12:02:02.932Z,100664.50
2019-03-09T12:04:33.078Z,100643.94
2019-03-09T12:07:03.377Z,100642.21
2019-03-09T12:09:33.679Z,100643.10
2019-03-09T12:12:04.947Z,100629.14
2019-03-09T12:14:35.223Z,100622.19
2019-03-09T12:17:12.762Z,100620.84
2019-03-09T12:19:37.493Z,100603.73
2019-03-09T12:22:07.662Z,100591.92
2019-03-09T12:24:37.977Z,100596.66
2019-03-09T12:27:08.407Z,100581.42
2019-03-09T12:29:38.688Z,100571.43
2019-03-09T12:32:09.033Z,100561.92
2019-03-09T12:34:39.322Z,100556.72
2019-03-09T12:37:09.535Z,100539.25
2019-03-09T12:39:39.775Z,100541.06
2019-03-09T12:42:09.990Z,100541.95
2019-03-09T12:44:40.308Z,100531.87
2019-03-09T12:47:10.576Z,100521.70
2019-03-09T12:49:40.841Z,100506.98
2019-03-09T12:52:11.100Z,100489.55
2019-03-09T12:54:41.359Z,100480.67
2019-03-09T12:57:11.488Z,100466.56
2019-03-09T12:59:43.816Z,100467.48
2019-03-09T13:02:14.117Z,100454.85
2019-03-09T13:04:44.329Z,100457.53
2019-03-09T13:07:14.655Z,100443.23
2019-03-09T13:09:44.721Z,100435.92
2019-03-09T13:12:14.971Z,100408.95
2019-03-09T13:14:45.180Z,100416.00
2019-03-09T13:17:15.463Z,100380.08
2019-03-09T13:19:45.609Z,100366.98
2019-03-09T13:22:15.893Z,100364.87
2019-03-09T13:24:46.266Z,100364.48
2019-03-09T13:27:16.429Z,100345.75
2019-03-09T13:29:46.696Z,100335.75
2019-03-09T13:32:16.928Z,100321.38
2019-03-09T13:34:49.193Z,100336.52
2019-03-09T13:37:19.184Z,100365.72
2019-03-09T13:39:49.478Z,100376.45
2019-03-09T13:42:19.690Z,100377.84
2019-03-09T13:44:51.835Z,100378.27
2019-03-09T13:47:21.926Z,100370.86
2019-03-09T13:49:52.208Z,100363.88
2019-03-09T13:52:22.332Z,100358.20
2019-03-09T13:54:52.628Z,100341.67
2019-03-09T13:57:22.881Z,100345.98
2019-03-09T13:59:53.140Z,100343.39
2019-03-09T14:02:23.385Z,100339.45
2019-03-09T14:04:53.782Z,100344.66
2019-03-09T14:07:24.051Z,100353.34
2019-03-09T14:09:54.250Z,100389.41
2019-03-09T14:12:24.541Z,100357.50
2019-03-09T14:14:59.288Z,100349.16
2019-03-09T14:17:30.758Z,100312.55
2019-03-09T14:20:01.045Z,100314.64
2019-03-09T14:22:31.410Z,100285.45
2019-03-09T14:25:02.635Z,100291.55
2019-03-09T14:27:32.866Z,100282.00
2019-03-09T14:30:03.251Z,100266.84
2019-03-09T14:32:34.387Z,100279.50
2019-03-09T14:35:05.251Z,100252.61
2019-03-09T14:37:35.546Z,100237.02
2019-03-09T14:40:07.908Z,100239.66
2019-03-09T14:42:38.929Z,100236.20
2019-03-09T14:45:13.875Z,100229.75
2019-03-09T14:47:44.214Z,100228.91
2019-03-09T14:50:16.123Z,100200.17
2019-03-09T14:52:46.419Z,100210.13
2019-03-09T14:55:16.734Z,100217.45
2019-03-09T14:57:47.061Z,100205.67
2019-03-09T15:00:22.336Z,100187.78
2019-03-09T15:02:52.830Z,100189.05
2019-03-09T15:05:23.316Z,100205.59
2019-03-09T15:07:53.503Z,100188.98
2019-03-09T15:10:23.687Z,100189.37
2019-03-09T15:12:53.959Z,100182.80
2019-03-09T15:15:24.234Z,100222.45
2019-03-09T15:17:54.862Z,100222.87
2019-03-09T15:20:25.295Z,100213.27
2019-03-09T15:22:55.640Z,100215.88
2019-03-09T15:25:25.821Z,100255.64
2019-03-09T15:27:56.135Z,100259.21
2019-03-09T15:30:26.270Z,100264.12
2019-03-09T15:32:56.544Z,100326.88
2019-03-09T15:35:26.741Z,100269.83
2019-03-09T15:37:56.951Z,100270.70
2019-03-09T15:40:27.407Z,100298.13
2019-03-09T15:42:57.665Z,100295.10
2019-03-09T15:45:27.941Z,100292.45
2019-03-09T15:48:00.749Z,100313.38
2019-03-09T15:50:30.998Z,100319.47
2019-03-09T15:53:02.903Z,100346.05
2019-03-09T15:55:33.314Z,100364.31
2019-03-09T15:58:03.655Z,100383.02
2019-03-09T16:00:33.964Z,100368.65
2019-03-09T16:03:04.391Z,100414.87
2019-03-09T16:05:34.705Z,100474.16
2019-03-09T16:08:05.045Z,100506.36
2019-03-09T16:10:35.452Z,100497.07
2019-03-09T16:13:06.969Z,100497.13
2019-03-09T16:15:37.160Z,100528.06
2019-03-09T16:18:07.417Z,100524.73
2019-03-09T16:20:37.753Z,100541.34
2019-03-09T16:23:08.072Z,100591.94
2019-03-09T16:25:38.331Z,100577.06
2019-03-09T16:28:08.585Z,100621.30
2019-03-09T16:30:38.708Z,100617.53
2019-03-09T16:33:09.114Z,100632.94
2019-03-09T16:35:40.812Z,100633.61
2019-03-09T16:38:11.201Z,100645.12
2019-03-09T16:40:41.599Z,100658.84
2019-03-09T16:43:12.009Z,100663.50
2019-03-09T16:45:42.283Z,100680.30
2019-03-09T16:48:12.659Z,100690.67
2019-03-09T16:50:43.033Z,100699.79
2019-03-09T16:53:13.277Z,100713.57
2019-03-09T16:55:43.569Z,100706.50
2019-03-09T16:58:13.809Z,100747.72
2019-03-09T17:00:43.974Z,100753.33
2019-03-09T17:03:14.122Z,100764.55
2019-03-09T17:05:44.574Z,100768.82
2019-03-09T17:08:22.427Z,100769.63
2019-03-09T17:10:52.761Z,100770.81
2019-03-09T17:13:23.124Z,100778.12
2019-03-09T17:15:53.352Z,100793.70
2019-03-09T17:18:23.582Z,100789.30
2019-03-09T17:20:56.793Z,100804.41
2019-03-09T17:23:27.244Z,100791.31
2019-03-09T17:25:57.881Z,100806.85
2019-03-09T17:28:28.107Z,100822.40
2019-03-09T17:30:58.315Z,100814.11
2019-03-09T17:33:28.478Z,100816.63
2019-03-09T17:35:58.653Z,100833.42
2019-03-09T17:38:28.864Z,100829.39
2019-03-09T17:41:01.424Z,100839.20
2019-03-09T17:43:31.525Z,100872.50
2019-03-09T17:46:01.679Z,100851.98
2019-03-09T17:48:32.231Z,100858.34
2019-03-09T17:51:02.350Z,100868.17
2019-03-09T17:53:32.414Z,100869.34
2019-03-09T17:56:02.641Z,100872.70
2019-03-09T17:58:32.804Z,100878.63
2019-03-09T18:01:02.854Z,100888.93
2019-03-09T18:03:33.148Z,100903.62
2019-03-09T18:06:03.480Z,100907.91
2019-03-09T18:08:33.630Z,100903.95
2019-03-09T18:11:06.705Z,100921.25
2019-03-09T18:13:36.884Z,100945.02
2019-03-09T18:16:07.170Z,100941.98
2019-03-09T18:18:37.453Z,100946.37
2019-03-09T18:21:08.092Z,100947.25
2019-03-09T18:23:38.348Z,100971.65
2019-03-09T18:26:08.547Z,100954.22
2019-03-09T18:28:38.774Z,100958.51
2019-03-09T18:31:08.888Z,100964.95
2019-03-09T18:33:39.080Z,100967.02
2019-03-09T18:36:09.256Z,100986.03
2019-03-09T18:38:39.370Z,100981.63
2019-03-09T18:41:09.519Z,100983.37
2019-03-09T18:43:39.731Z,100981.63
2019-03-09T18:46:09.950Z,100987.22
2019-03-09T18:48:40.140Z,100988.89
2019-03-09T18:51:10.345Z,100997.08
2019-03-09T18:53:40.441Z,100994.03
2019-03-09T18:56:10.657Z,101007.88
2019-03-09T18:58:41.143Z,101000.10
2019-03-09T19:01:11.628Z,101001.41
2019-03-09T19:03:42.629Z,101009.30
2019-03-09T19:06:13.204Z,101001.94
2019-03-09T19:08:43.702Z,101007.52
2019-03-09T19:11:14.632Z,101002.69
2019-03-09T19:13:45.305Z,101014.56
2019-03-09T19:16:15.768Z,101012.88
2019-03-09T19:21:31.372Z,101011.09
2019-03-09T19:24:01.499Z,101006.61
2019-03-09T19:26:31.721Z,101009.59
2019-03-09T19:29:01.991Z,101023.84
2019-03-09T19:31:32.501Z,101028.16
2019-03-09T19:34:03.043Z,101019.45
2019-03-09T19:36:33.576Z,101032.00
2019-03-09T19:39:04.784Z,101038.88
2019-03-09T19:41:35.508Z,101048.14
2019-03-09T19:44:07.194Z,101058.06
2019-03-09T19:46:37.650Z,101057.62
2019-03-09T19:49:08.073Z,101058.00
2019-03-09T19:51:38.495Z,101050.91
2019-03-09T19:54:08.997Z,101060.05
2019-03-09T19:56:39.448Z,101068.28
2019-03-09T19:59:09.854Z,101061.34
2019-03-09T20:01:40.289Z,101060.36
2019-03-09T20:04:10.660Z,101062.16
2019-03-09T20:06:42.055Z,101059.06
2019-03-09T20:09:12.596Z,101067.36
2019-03-09T20:11:42.962Z,101070.00
2019-03-09T20:14:13.380Z,101061.66
2019-03-09T20:16:44.284Z,101079.59
2019-03-09T20:19:14.813Z,101078.31
2019-03-09T20:21:45.992Z,101071.37
2019-03-09T20:24:16.750Z,101072.72
2019-03-09T20:26:50.241Z,101074.03
2019-03-09T20:29:20.600Z,101073.61
2019-03-09T20:31:51.129Z,101065.80
2019-03-09T20:34:21.572Z,101068.02
2019-03-09T20:36:52.103Z,101068.94
2019-03-09T20:39:22.650Z,101064.66
2019-03-09T20:41:53.158Z,101068.94
2019-03-09T20:44:25.836Z,101059.41
2019-03-09T20:46:56.479Z,101067.70
2019-03-09T20:49:27.746Z,101066.41
2019-03-09T20:51:58.660Z,101073.40
2019-03-09T20:54:29.205Z,101080.42
2019-03-09T20:56:59.830Z,101083.50
2019-03-09T20:59:30.414Z,101092.13
2019-03-09T21:02:00.979Z,101087.41
2019-03-09T21:04:31.376Z,101082.22
2019-03-09T21:07:01.832Z,101077.92
2019-03-09T21:09:32.743Z,101078.75
2019-03-09T21:12:03.992Z,101084.82
2019-03-09T21:14:34.465Z,101082.27
2019-03-09T21:17:05.164Z,101077.99
2019-03-09T21:19:35.634Z,101073.55
2019-03-09T21:22:07.360Z,101078.80
2019-03-09T21:24:37.901Z,101088.39
2019-03-09T21:27:08.838Z,101079.36
2019-03-09T21:32:08.496Z,101080.60
2019-03-09T21:34:38.879Z,101071.02
2019-03-09T21:37:09.570Z,101094.11
2019-03-09T21:39:40.369Z,101087.28
2019-03-09T21:42:10.909Z,101078.22
2019-03-09T21:44:41.435Z,101087.39
2019-03-09T21:47:11.929Z,101094.37
2019-03-09T21:49:42.774Z,101093.12
2019-03-09T21:52:13.397Z,101098.37
2019-03-09T21:54:44.566Z,101096.17
2019-03-09T21:57:15.891Z,101098.44
2019-03-09T21:59:46.536Z,101104.56
2019-03-09T22:02:16.999Z,101099.79
2019-03-09T22:04:47.553Z,101095.52
2019-03-09T22:07:17.839Z,101093.88
2019-03-09T22:09:47.973Z,101101.75
2019-03-09T22:12:18.055Z,101102.67
2019-03-09T22:14:48.368Z,101113.56
2019-03-09T22:17:18.695Z,101115.78
2019-03-09T22:19:48.889Z,101113.61
2019-03-09T22:22:19.073Z,101118.45
2019-03-09T22:24:49.271Z,101124.56
2019-03-09T22:27:19.494Z,101120.34
2019-03-09T22:29:49.829Z,101119.95
2019-03-09T22:32:20.049Z,101126.08
2019-03-09T22:34:50.162Z,101118.75
2019-03-09T22:37:20.416Z,101115.72
2019-03-09T22:39:50.569Z,101131.81
2019-03-09T22:42:20.758Z,101116.20
2019-03-09T22:44:50.945Z,101120.16
2019-03-09T22:47:21.225Z,101112.30
2019-03-09T22:49:51.514Z,101119.62
2019-03-09T22:52:21.661Z,101122.66
2019-03-09T22:54:51.814Z,101125.80
2019-03-09T22:57:22.050Z,101131.48
2019-03-09T22:59:52.478Z,101135.35
2019-03-09T23:02:22.721Z,101134.92
2019-03-09T23:04:53.033Z,101138.92
2019-03-09T23:07:23.338Z,101139.45
2019-03-09T23:09:53.513Z,101133.81
2019-03-09T23:12:23.680Z,101137.73
2019-03-09T23:14:53.881Z,101136.91
2019-03-09T23:17:24.080Z,101125.63
2019-03-09T23:19:54.220Z,101123.11
2019-03-09T23:22:24.359Z,101122.73
2019-03-09T23:24:54.545Z,101113.67
2019-03-09T23:27:24.662Z,101117.19
2019-03-09T23:29:54.862Z,101121.15
2019-03-09T23:32:25.068Z,101120.33
2019-03-09T23:34:55.282Z,101111.22
2019-03-09T23:37:25.407Z,101108.17
2019-03-09T23:39:55.600Z,101103.39
2019-03-09T23:42:25.672Z,101113.42
2019-03-09T23:44:55.795Z,101108.21
2019-03-09T23:47:25.946Z,101109.95
2019-03-09T23:49:56.175Z,101110.83
2019-03-09T23:52:26.327Z,101110.87
2019-03-09T23:54:58.014Z,101117.00
2019-03-09T23:57:28.211Z,101102.67
2019-03-09T23:59:58.431Z,101098.28
